createdAt,value
2019-03-31T00:01:08.123Z,1009.23
2019-03-31T00:01:57.853Z,1009.27
2019-03-31T00:02:57.783Z,1009.24
2019-03-31T00:03:57.715Z,1009.25
2019-03-31T00:04:57.668Z,1009.26
2019-03-31T00:05:57.620Z,1009.25
2019-03-31T00:06:57.588Z,1009.26
2019-03-31T00:07:57.517Z,1009.26
2019-03-31T00:08:57.458Z,1009.24
2019-03-31T00:09:57.407Z,1009.28
2019-03-31T00:11:00.534Z,1009.26
2019-03-31T00:11:57.324Z,1009.27
2019-03-31T00:12:57.260Z,1009.28
2019-03-31T00:13:57.193Z,1009.29
2019-03-31T00:14:57.145Z,1009.26
2019-03-31T00:15:57.093Z,1009.29
2019-03-31T00:16:57.069Z,1009.29
2019-03-31T00:17:56.985Z,1009.24
2019-03-31T00:18:56.933Z,1009.25
2019-03-31T00:19:56.883Z,1009.24
2019-03-31T00:20:56.830Z,1009.27
2019-03-31T00:21:56.803Z,1009.30
2019-03-31T00:22:56.725Z,1009.29
2019-03-31T00:23:56.675Z,1009.29
2019-03-31T00:24:56.621Z,1009.35
2019-03-31T00:25:56.585Z,1009.34
2019-03-31T00:26:56.513Z,1009.35
2019-03-31T00:27:56.481Z,1009.31
2019-03-31T00:28:56.407Z,1009.32
2019-03-31T00:29:56.361Z,1009.30
2019-03-31T00:30:56.301Z,1009.31
2019-03-31T00:31:56.252Z,1009.30
2019-03-31T00:32:56.221Z,1009.30
2019-03-31T00:33:56.150Z,1009.31
2019-03-31T00:34:56.091Z,1009.31
2019-03-31T00:35:56.042Z,1009.31
2019-03-31T00:36:55.993Z,1009.31
2019-03-31T00:37:55.951Z,1009.25
2019-03-31T00:38:55.887Z,1009.29
2019-03-31T00:39:55.831Z,1009.25
2019-03-31T00:40:55.777Z,1009.23
2019-03-31T00:41:55.722Z,1009.28
2019-03-31T00:42:55.691Z,1009.25
2019-03-31T00:43:55.623Z,1009.24
2019-03-31T00:44:55.614Z,1009.25
2019-03-31T00:45:55.505Z,1009.26
2019-03-31T00:46:55.586Z,1009.24
2019-03-31T00:47:55.427Z,1009.27
2019-03-31T00:48:55.358Z,1009.27
2019-03-31T00:49:55.309Z,1009.32
2019-03-31T00:50:55.247Z,1009.31
2019-03-31T00:51:55.198Z,1009.32
2019-03-31T00:52:55.168Z,1009.31
2019-03-31T00:53:55.090Z,1009.29
2019-03-31T00:54:55.043Z,1009.32
2019-03-31T00:55:54.992Z,1009.35
2019-03-31T00:56:54.934Z,1009.28
2019-03-31T00:57:54.917Z,1009.35
2019-03-31T00:58:54.844Z,1009.31
2019-03-31T00:59:54.779Z,1009.33
2019-03-31T01:00:54.726Z,1009.34
2019-03-31T01:01:54.667Z,1009.34
2019-03-31T01:02:54.636Z,1009.36
2019-03-31T01:03:54.564Z,1009.37
2019-03-31T01:04:54.513Z,1009.31
2019-03-31T01:05:54.461Z,1009.36
2019-03-31T01:06:54.406Z,1009.35
2019-03-31T01:07:54.378Z,1009.37
2019-03-31T01:08:54.303Z,1009.39
2019-03-31T01:09:54.249Z,1009.42
2019-03-31T01:10:54.199Z,1009.39
2019-03-31T01:11:54.148Z,1009.43
2019-03-31T01:12:54.121Z,1009.42
2019-03-31T01:13:54.039Z,1009.43
2019-03-31T01:14:53.982Z,1009.42
2019-03-31T01:15:53.941Z,1009.45
2019-03-31T01:16:53.890Z,1009.43
2019-03-31T01:17:53.869Z,1009.40
2019-03-31T01:18:53.781Z,1009.41
2019-03-31T01:19:53.730Z,1009.44
2019-03-31T01:20:53.670Z,1009.42
2019-03-31T01:21:53.623Z,1009.43
2019-03-31T01:22:53.591Z,1009.48
2019-03-31T01:23:53.516Z,1009.43
2019-03-31T01:24:53.465Z,1009.45
2019-03-31T01:25:53.411Z,1009.46
2019-03-31T01:26:53.363Z,1009.44
2019-03-31T01:27:53.331Z,1009.40
2019-03-31T01:28:53.262Z,1009.45
2019-03-31T01:29:53.203Z,1009.41
2019-03-31T01:30:53.156Z,1009.42
2019-03-31T01:31:53.097Z,1009.45
2019-03-31T01:32:53.075Z,1009.46
2019-03-31T01:33:52.990Z,1009.46
2019-03-31T01:34:52.939Z,1009.50
2019-03-31T01:35:52.888Z,1009.54
2019-03-31T01:36:52.835Z,1009.57
2019-03-31T01:37:52.805Z,1009.55
2019-03-31T01:38:52.730Z,1009.59
2019-03-31T01:39:52.670Z,1009.63
2019-03-31T01:40:52.623Z,1009.62
2019-03-31T01:41:52.578Z,1009.62
2019-03-31T01:42:52.535Z,1009.61
2019-03-31T01:43:52.466Z,1009.57
2019-03-31T01:44:52.408Z,1009.57
2019-03-31T01:45:52.366Z,1009.61
2019-03-31T01:46:52.307Z,1009.62
2019-03-31T01:47:52.294Z,1009.66
2019-03-31T01:48:52.204Z,1009.66
2019-03-31T01:49:52.148Z,1009.64
2019-03-31T01:50:52.098Z,1009.61
2019-03-31T01:51:52.046Z,1009.62
2019-03-31T01:52:51.995Z,1009.64
2019-03-31T01:53:51.971Z,1009.63
2019-03-31T01:54:51.883Z,1009.67
2019-03-31T01:55:51.840Z,1009.68
2019-03-31T01:56:51.781Z,1009.67
2019-03-31T01:57:51.725Z,1009.71
2019-03-31T01:58:51.702Z,1009.71
2019-03-31T01:59:51.622Z,1009.74
2019-03-31T02:00:51.567Z,1009.75
2019-03-31T02:02:03.517Z,1009.76
2019-03-31T02:02:51.464Z,1009.72
2019-03-31T02:03:51.434Z,1009.77
2019-03-31T02:04:51.362Z,1009.78
2019-03-31T02:05:51.316Z,1009.80
2019-03-31T02:06:51.255Z,1009.79
2019-03-31T02:07:51.206Z,1009.80
2019-03-31T02:08:51.171Z,1009.81
2019-03-31T02:09:51.093Z,1009.81
2019-03-31T02:10:51.038Z,1009.82
2019-03-31T02:11:50.986Z,1009.80
2019-03-31T02:12:50.939Z,1009.84
2019-03-31T02:13:50.904Z,1009.82
2019-03-31T02:14:50.825Z,1009.82
2019-03-31T02:15:50.772Z,1009.83
2019-03-31T02:16:50.721Z,1009.79
2019-03-31T02:17:50.666Z,1009.80
2019-03-31T02:18:50.638Z,1009.80
2019-03-31T02:19:50.579Z,1009.79
2019-03-31T02:20:50.506Z,1009.83
2019-03-31T02:21:50.460Z,1009.82
2019-03-31T02:22:50.406Z,1009.86
2019-03-31T02:23:50.377Z,1009.82
2019-03-31T02:24:50.299Z,1009.81
2019-03-31T02:25:50.242Z,1009.77
2019-03-31T02:26:50.189Z,1009.77
2019-03-31T02:27:50.140Z,1009.80
2019-03-31T02:28:50.188Z,1009.78
2019-03-31T02:29:50.032Z,1009.81
2019-03-31T02:30:49.983Z,1009.80
2019-03-31T02:31:49.930Z,1009.82
2019-03-31T02:32:49.874Z,1009.83
2019-03-31T02:33:49.844Z,1009.81
2019-03-31T02:34:49.769Z,1009.82
2019-03-31T02:35:49.709Z,1009.85
2019-03-31T02:36:49.667Z,1009.81
2019-03-31T02:37:49.616Z,1009.83
2019-03-31T02:38:49.558Z,1009.82
2019-03-31T02:39:49.527Z,1009.87
2019-03-31T02:40:49.448Z,1009.87
2019-03-31T02:41:49.394Z,1009.88
2019-03-31T02:42:49.341Z,1009.91
2019-03-31T02:43:49.296Z,1009.92
2019-03-31T02:44:49.286Z,1009.91
2019-03-31T02:45:49.184Z,1009.90
2019-03-31T02:46:49.124Z,1009.92
2019-03-31T02:47:49.075Z,1009.96
2019-03-31T02:48:49.026Z,1009.92
2019-03-31T02:49:48.994Z,1009.92
2019-03-31T02:50:48.917Z,1009.92
2019-03-31T02:51:48.863Z,1009.90
2019-03-31T02:52:48.815Z,1009.95
2019-03-31T02:53:48.761Z,1009.96
2019-03-31T02:54:48.736Z,1009.96
2019-03-31T02:55:48.651Z,1009.94
2019-03-31T02:56:48.603Z,1009.97
2019-03-31T02:57:48.542Z,1009.97
2019-03-31T02:58:48.493Z,1009.97
2019-03-31T02:59:48.464Z,1009.97
2019-03-31T03:00:48.385Z,1010.04
2019-03-31T03:01:48.329Z,1010.06
2019-03-31T03:02:48.278Z,1010.07
2019-03-31T03:03:48.217Z,1010.07
2019-03-31T03:04:48.214Z,1010.09
2019-03-31T03:05:48.123Z,1010.12
2019-03-31T03:06:48.063Z,1010.13
2019-03-31T03:07:48.010Z,1010.14
2019-03-31T03:08:47.954Z,1010.14
2019-03-31T03:09:47.937Z,1010.13
2019-03-31T03:10:47.857Z,1010.16
2019-03-31T03:11:47.804Z,1010.15
2019-03-31T03:12:47.750Z,1010.14
2019-03-31T03:13:47.692Z,1010.10
2019-03-31T03:14:47.664Z,1010.08
2019-03-31T03:15:47.587Z,1010.09
2019-03-31T03:16:47.533Z,1010.08
2019-03-31T03:17:47.484Z,1010.06
2019-03-31T03:18:47.432Z,1010.10
2019-03-31T03:19:47.398Z,1010.06
2019-03-31T03:20:47.317Z,1010.09
2019-03-31T03:21:47.262Z,1010.01
2019-03-31T03:22:47.211Z,1010.00
2019-03-31T03:23:47.160Z,1009.95
2019-03-31T03:24:47.135Z,1009.96
2019-03-31T03:25:55.897Z,1009.96
2019-03-31T03:26:46.997Z,1009.97
2019-03-31T03:27:46.955Z,1009.99
2019-03-31T03:28:46.887Z,1009.96
2019-03-31T03:29:46.861Z,1009.98
2019-03-31T03:30:46.981Z,1010.02
2019-03-31T03:31:46.729Z,1010.02
2019-03-31T03:33:12.538Z,1010.05
2019-03-31T03:33:46.634Z,1010.02
2019-03-31T03:34:46.618Z,1010.06
2019-03-31T03:35:46.541Z,1010.11
2019-03-31T03:36:46.468Z,1010.14
2019-03-31T03:37:46.410Z,1010.12
2019-03-31T03:38:46.353Z,1010.14
2019-03-31T03:39:46.326Z,1010.13
2019-03-31T03:40:46.248Z,1010.13
2019-03-31T03:41:46.197Z,1010.12
2019-03-31T03:42:46.140Z,1010.14
2019-03-31T03:43:55.354Z,1010.15
2019-03-31T03:44:46.058Z,1010.14
2019-03-31T03:45:46.001Z,1010.17
2019-03-31T03:46:45.933Z,1010.19
2019-03-31T03:47:45.902Z,1010.20
2019-03-31T03:48:45.855Z,1010.19
2019-03-31T03:49:45.758Z,1010.24
2019-03-31T03:50:45.805Z,1010.27
2019-03-31T03:51:45.656Z,1010.25
2019-03-31T03:52:45.608Z,1010.23
2019-03-31T03:53:45.554Z,1010.21
2019-03-31T03:54:45.499Z,1010.23
2019-03-31T03:55:45.486Z,1010.18
2019-03-31T03:56:45.391Z,1010.19
2019-03-31T03:57:45.330Z,1010.16
2019-03-31T03:58:45.285Z,1010.16
2019-03-31T03:59:45.225Z,1010.20
2019-03-31T04:00:45.197Z,1010.22
2019-03-31T04:01:45.125Z,1010.18
2019-03-31T04:02:45.076Z,1010.20
2019-03-31T04:03:45.010Z,1010.18
2019-03-31T04:04:44.955Z,1010.23
2019-03-31T04:05:44.935Z,1010.26
2019-03-31T04:06:44.852Z,1010.28
2019-03-31T04:07:44.794Z,1010.32
2019-03-31T04:08:44.747Z,1010.33
2019-03-31T04:09:44.690Z,1010.31
2019-03-31T04:10:44.656Z,1010.34
2019-03-31T04:11:44.589Z,1010.35
2019-03-31T04:12:44.528Z,1010.39
2019-03-31T04:13:44.475Z,1010.43
2019-03-31T04:14:44.425Z,1010.43
2019-03-31T04:15:44.418Z,1010.42
2019-03-31T04:16:44.325Z,1010.43
2019-03-31T04:17:44.269Z,1010.43
2019-03-31T04:18:44.209Z,1010.44
2019-03-31T04:19:44.158Z,1010.50
2019-03-31T04:20:44.126Z,1010.45
2019-03-31T04:21:44.047Z,1010.48
2019-03-31T04:22:43.995Z,1010.47
2019-03-31T04:23:43.939Z,1010.48
2019-03-31T04:24:43.889Z,1010.47
2019-03-31T04:25:43.860Z,1010.49
2019-03-31T04:26:43.789Z,1010.50
2019-03-31T04:27:43.722Z,1010.51
2019-03-31T04:28:43.676Z,1010.56
2019-03-31T04:29:43.616Z,1010.54
2019-03-31T04:30:43.585Z,1010.54
2019-03-31T04:31:43.504Z,1010.58
2019-03-31T04:32:43.458Z,1010.58
2019-03-31T04:33:51.773Z,1010.59
2019-03-31T04:34:43.352Z,1010.62
2019-03-31T04:35:43.322Z,1010.63
2019-03-31T04:36:43.248Z,1010.66
2019-03-31T04:37:43.184Z,1010.65
2019-03-31T04:38:43.135Z,1010.62
2019-03-31T04:39:43.085Z,1010.63
2019-03-31T04:40:43.051Z,1010.65
2019-03-31T04:41:42.967Z,1010.69
2019-03-31T04:42:42.918Z,1010.68
2019-03-31T04:43:42.863Z,1010.74
2019-03-31T04:44:42.813Z,1010.72
2019-03-31T04:45:42.777Z,1010.72
2019-03-31T04:46:42.704Z,1010.75
2019-03-31T04:47:42.646Z,1010.72
2019-03-31T04:48:42.593Z,1010.69
2019-03-31T04:49:42.547Z,1010.68
2019-03-31T04:50:42.504Z,1010.68
2019-03-31T04:51:42.432Z,1010.68
2019-03-31T04:52:42.380Z,1010.67
2019-03-31T04:53:42.326Z,1010.75
2019-03-31T04:54:42.270Z,1010.77
2019-03-31T04:55:42.241Z,1010.79
2019-03-31T04:56:42.155Z,1010.87
2019-03-31T04:57:42.112Z,1010.89
2019-03-31T04:58:42.058Z,1010.83
2019-03-31T04:59:41.998Z,1010.83
2019-03-31T05:00:41.981Z,1010.84
2019-03-31T05:01:41.889Z,1010.86
2019-03-31T05:02:41.842Z,1010.87
2019-03-31T05:03:41.779Z,1010.82
2019-03-31T05:04:41.735Z,1010.86
2019-03-31T05:05:41.709Z,1010.87
2019-03-31T05:06:41.621Z,1010.88
2019-03-31T05:07:41.562Z,1010.93
2019-03-31T05:08:41.510Z,1010.97
2019-03-31T05:09:41.459Z,1010.95
2019-03-31T05:10:41.403Z,1011.00
2019-03-31T05:11:41.373Z,1011.03
2019-03-31T05:12:41.302Z,1011.05
2019-03-31T05:13:41.241Z,1011.10
2019-03-31T05:14:41.187Z,1011.08
2019-03-31T05:15:41.131Z,1011.14
2019-03-31T05:16:41.098Z,1011.19
2019-03-31T05:17:41.029Z,1011.21
2019-03-31T05:18:40.970Z,1011.26
2019-03-31T05:19:40.922Z,1011.29
2019-03-31T05:20:40.864Z,1011.32
2019-03-31T05:21:40.830Z,1011.28
2019-03-31T05:22:40.752Z,1011.35
2019-03-31T05:23:40.700Z,1011.38
2019-03-31T05:24:40.649Z,1011.39
2019-03-31T05:25:40.658Z,1011.44
2019-03-31T05:26:40.558Z,1011.48
2019-03-31T05:27:40.481Z,1011.43
2019-03-31T05:28:40.726Z,1011.47
2019-03-31T05:29:40.372Z,1011.53
2019-03-31T05:30:40.318Z,1011.54
2019-03-31T05:31:40.288Z,1011.59
2019-03-31T05:32:40.209Z,1011.60
2019-03-31T05:33:40.154Z,1011.64
2019-03-31T05:34:40.094Z,1011.56
2019-03-31T05:35:40.042Z,1011.64
2019-03-31T05:36:40.011Z,1011.62
2019-03-31T05:37:50.914Z,1011.64
2019-03-31T05:38:39.885Z,1011.67
2019-03-31T05:39:39.825Z,1011.68
2019-03-31T05:40:39.772Z,1011.66
2019-03-31T05:41:39.724Z,1011.65
2019-03-31T05:42:39.663Z,1011.62
2019-03-31T05:43:39.610Z,1011.63
2019-03-31T05:44:39.554Z,1011.64
2019-03-31T05:45:39.496Z,1011.68
2019-03-31T05:46:39.462Z,1011.65
2019-03-31T05:47:39.395Z,1011.65
2019-03-31T05:48:39.335Z,1011.67
2019-03-31T05:49:39.279Z,1011.70
2019-03-31T05:50:39.224Z,1011.70
2019-03-31T05:51:39.198Z,1011.77
2019-03-31T05:52:39.115Z,1011.79
2019-03-31T05:53:39.066Z,1011.83
2019-03-31T05:54:39.010Z,1011.85
2019-03-31T05:55:38.951Z,1011.87
2019-03-31T05:56:38.926Z,1011.85
2019-03-31T05:57:38.845Z,1011.88
2019-03-31T05:58:38.788Z,1011.88
2019-03-31T05:59:38.729Z,1011.88
2019-03-31T06:00:38.678Z,1011.88
2019-03-31T06:01:38.645Z,1011.83
2019-03-31T06:02:38.569Z,1011.87
2019-03-31T06:03:38.511Z,1011.84
2019-03-31T06:04:38.457Z,1011.88
2019-03-31T06:05:38.401Z,1011.86
2019-03-31T06:06:38.380Z,1011.88
2019-03-31T06:07:38.298Z,1011.86
2019-03-31T06:08:38.238Z,1011.94
2019-03-31T06:09:38.178Z,1011.98
2019-03-31T06:10:38.133Z,1011.94
2019-03-31T06:11:38.104Z,1011.96
2019-03-31T06:12:38.030Z,1012.00
2019-03-31T06:13:37.970Z,1012.01
2019-03-31T06:14:37.914Z,1012.01
2019-03-31T06:15:37.863Z,1012.01
2019-03-31T06:16:37.829Z,1011.99
2019-03-31T06:17:37.748Z,1012.09
2019-03-31T06:18:37.694Z,1012.06
2019-03-31T06:19:37.644Z,1012.05
2019-03-31T06:20:37.586Z,1012.09
2019-03-31T06:21:37.562Z,1012.01
2019-03-31T06:22:37.480Z,1012.03
2019-03-31T06:23:37.424Z,1012.04
2019-03-31T06:24:37.373Z,1012.10
2019-03-31T06:25:37.314Z,1012.11
2019-03-31T06:26:37.287Z,1012.08
2019-03-31T06:27:37.207Z,1012.06
2019-03-31T06:28:37.150Z,1012.03
2019-03-31T06:29:37.095Z,1012.04
2019-03-31T06:30:37.036Z,1012.05
2019-03-31T06:31:37.033Z,1012.08
2019-03-31T06:32:36.935Z,1012.08
2019-03-31T06:33:36.891Z,1012.06
2019-03-31T06:34:47.482Z,1012.06
2019-03-31T06:35:36.769Z,1012.06
2019-03-31T06:36:36.715Z,1012.07
2019-03-31T06:37:36.689Z,1012.07
2019-03-31T06:38:36.609Z,1012.06
2019-03-31T06:39:36.554Z,1012.05
2019-03-31T06:40:36.500Z,1012.13
2019-03-31T06:41:36.439Z,1012.14
2019-03-31T06:42:36.411Z,1012.18
2019-03-31T06:43:36.335Z,1012.16
2019-03-31T06:44:38.131Z,1012.15
2019-03-31T06:45:36.230Z,1012.11
2019-03-31T06:46:36.166Z,1012.10
2019-03-31T06:47:36.139Z,1012.14
2019-03-31T06:48:36.064Z,1012.09
2019-03-31T06:49:36.008Z,1012.21
2019-03-31T06:50:35.955Z,1012.22
2019-03-31T06:51:35.908Z,1012.24
2019-03-31T06:52:35.874Z,1012.25
2019-03-31T06:53:35.790Z,1012.26
2019-03-31T06:54:35.746Z,1012.27
2019-03-31T06:55:35.688Z,1012.31
2019-03-31T06:56:35.632Z,1012.29
2019-03-31T06:57:35.593Z,1012.30
2019-03-31T06:58:35.529Z,1012.30
2019-03-31T06:59:35.466Z,1012.32
2019-03-31T07:00:35.411Z,1012.32
2019-03-31T07:01:35.360Z,1012.30
2019-03-31T07:02:35.324Z,1012.30
2019-03-31T07:03:35.253Z,1012.33
2019-03-31T07:04:35.197Z,1012.32
2019-03-31T07:05:35.148Z,1012.34
2019-03-31T07:06:35.097Z,1012.37
2019-03-31T07:07:35.070Z,1012.35
2019-03-31T07:08:34.979Z,1012.36
2019-03-31T07:09:34.928Z,1012.36
2019-03-31T07:10:34.881Z,1012.36
2019-03-31T07:11:34.822Z,1012.36
2019-03-31T07:12:34.795Z,1012.36
2019-03-31T07:13:34.715Z,1012.39
2019-03-31T07:14:34.663Z,1012.44
2019-03-31T07:15:34.608Z,1012.46
2019-03-31T07:16:34.552Z,1012.48
2019-03-31T07:17:34.530Z,1012.49
2019-03-31T07:18:34.447Z,1012.48
2019-03-31T07:19:34.393Z,1012.56
2019-03-31T07:20:34.344Z,1012.55
2019-03-31T07:21:34.288Z,1012.51
2019-03-31T07:22:34.257Z,1012.54
2019-03-31T07:23:34.181Z,1012.60
2019-03-31T07:24:34.129Z,1012.62
2019-03-31T07:25:37.053Z,1012.63
2019-03-31T07:26:34.018Z,1012.67
2019-03-31T07:27:33.991Z,1012.65
2019-03-31T07:28:33.917Z,1012.67
2019-03-31T07:29:33.865Z,1012.66
2019-03-31T07:30:33.810Z,1012.67
2019-03-31T07:31:33.755Z,1012.72
2019-03-31T07:32:33.729Z,1012.75
2019-03-31T07:33:33.660Z,1012.76
2019-03-31T07:34:33.596Z,1012.72
2019-03-31T07:35:33.548Z,1012.74
2019-03-31T07:36:33.494Z,1012.72
2019-03-31T07:37:46.349Z,1012.85
2019-03-31T07:38:39.248Z,1012.77
2019-03-31T07:39:33.334Z,1012.81
2019-03-31T07:40:33.505Z,1012.78
2019-03-31T07:41:33.404Z,1012.82
2019-03-31T07:42:33.201Z,1012.80
2019-03-31T07:43:33.118Z,1012.82
2019-03-31T07:44:33.065Z,1012.88
2019-03-31T07:45:33.011Z,1012.87
2019-03-31T07:46:32.961Z,1012.87
2019-03-31T07:47:32.932Z,1012.89
2019-03-31T07:48:32.849Z,1012.84
2019-03-31T07:49:32.799Z,1012.88
2019-03-31T07:50:32.747Z,1012.88
2019-03-31T07:51:32.695Z,1012.87
2019-03-31T07:52:32.663Z,1012.89
2019-03-31T07:53:32.587Z,1012.84
2019-03-31T07:54:32.532Z,1012.86
2019-03-31T07:55:32.476Z,1012.88
2019-03-31T07:56:32.421Z,1012.83
2019-03-31T07:57:32.398Z,1012.89
2019-03-31T07:58:32.320Z,1012.88
2019-03-31T07:59:32.272Z,1012.83
2019-03-31T08:00:32.207Z,1012.81
2019-03-31T08:01:32.160Z,1012.81
2019-03-31T08:02:32.128Z,1012.82
2019-03-31T08:03:32.057Z,1012.85
2019-03-31T08:04:32.002Z,1012.75
2019-03-31T08:05:33.923Z,1012.83
2019-03-31T08:06:31.891Z,1012.80
2019-03-31T08:07:31.864Z,1012.80
2019-03-31T08:08:31.790Z,1012.76
2019-03-31T08:09:31.729Z,1012.84
2019-03-31T08:10:31.682Z,1012.80
2019-03-31T08:11:31.623Z,1012.88
2019-03-31T08:12:31.604Z,1012.84
2019-03-31T08:13:31.521Z,1012.84
2019-03-31T08:14:31.469Z,1012.85
2019-03-31T08:15:31.413Z,1012.82
2019-03-31T08:16:31.361Z,1012.90
2019-03-31T08:17:31.344Z,1012.93
2019-03-31T08:18:31.259Z,1012.91
2019-03-31T08:19:31.211Z,1012.88
2019-03-31T08:20:31.154Z,1012.88
2019-03-31T08:21:31.097Z,1012.91
2019-03-31T08:22:31.069Z,1012.92
2019-03-31T08:23:30.985Z,1012.96
2019-03-31T08:24:30.939Z,1012.97
2019-03-31T08:25:30.879Z,1013.01
2019-03-31T08:26:30.832Z,1012.95
2019-03-31T08:27:30.804Z,1012.99
2019-03-31T08:28:30.727Z,1012.99
2019-03-31T08:29:30.677Z,1013.00
2019-03-31T08:30:30.617Z,1013.02
2019-03-31T08:31:30.563Z,1013.07
2019-03-31T08:32:30.540Z,1013.03
2019-03-31T08:33:30.464Z,1013.02
2019-03-31T08:34:30.428Z,1013.04
2019-03-31T08:35:30.362Z,1013.08
2019-03-31T08:36:30.304Z,1013.06
2019-03-31T08:37:30.274Z,1013.10
2019-03-31T08:38:30.197Z,1013.14
2019-03-31T08:39:30.143Z,1013.18
2019-03-31T08:40:30.093Z,1013.20
2019-03-31T08:41:30.037Z,1013.26
2019-03-31T08:42:30.040Z,1013.27
2019-03-31T08:43:29.936Z,1013.28
2019-03-31T08:44:29.879Z,1013.29
2019-03-31T08:45:30.606Z,1013.34
2019-03-31T08:46:29.777Z,1013.30
2019-03-31T08:47:29.748Z,1013.29
2019-03-31T08:48:29.670Z,1013.34
2019-03-31T08:49:29.626Z,1013.29
2019-03-31T08:50:29.568Z,1013.33
2019-03-31T08:51:29.519Z,1013.30
2019-03-31T08:52:29.495Z,1013.31
2019-03-31T08:53:29.412Z,1013.31
2019-03-31T08:54:29.369Z,1013.36
2019-03-31T08:55:29.301Z,1013.40
2019-03-31T08:56:29.246Z,1013.35
2019-03-31T08:57:29.196Z,1013.41
2019-03-31T08:58:29.167Z,1013.42
2019-03-31T08:59:29.093Z,1013.41
2019-03-31T09:00:29.041Z,1013.39
2019-03-31T09:01:28.985Z,1013.43
2019-03-31T09:02:28.934Z,1013.41
2019-03-31T09:03:28.907Z,1013.40
2019-03-31T09:04:28.835Z,1013.46
2019-03-31T09:05:28.773Z,1013.45
2019-03-31T09:06:28.727Z,1013.50
2019-03-31T09:07:28.676Z,1013.44
2019-03-31T09:08:28.645Z,1013.47
2019-03-31T09:09:28.570Z,1013.41
2019-03-31T09:10:28.513Z,1013.43
2019-03-31T09:11:28.463Z,1013.46
2019-03-31T09:12:28.411Z,1013.42
2019-03-31T09:13:28.385Z,1013.42
2019-03-31T09:14:28.314Z,1013.40
2019-03-31T09:15:28.262Z,1013.44
2019-03-31T09:16:28.205Z,1013.42
2019-03-31T09:17:28.170Z,1013.49
2019-03-31T09:18:28.124Z,1013.48
2019-03-31T09:19:28.050Z,1013.57
2019-03-31T09:20:27.997Z,1013.48
2019-03-31T09:21:27.945Z,1013.53
2019-03-31T09:22:27.902Z,1013.56
2019-03-31T09:23:27.871Z,1013.51
2019-03-31T09:24:27.803Z,1013.57
2019-03-31T09:25:27.740Z,1013.57
2019-03-31T09:26:27.692Z,1013.62
2019-03-31T09:27:27.642Z,1013.67
2019-03-31T09:28:27.612Z,1013.67
2019-03-31T09:29:27.547Z,1013.64
2019-03-31T09:30:27.483Z,1013.68
2019-03-31T09:31:27.445Z,1013.70
2019-03-31T09:32:27.380Z,1013.70
2019-03-31T09:33:27.354Z,1013.72
2019-03-31T09:34:27.285Z,1013.74
2019-03-31T09:35:27.226Z,1013.78
2019-03-31T09:36:27.174Z,1013.74
2019-03-31T09:37:27.124Z,1013.68
2019-03-31T09:38:27.096Z,1013.76
2019-03-31T09:39:27.020Z,1013.73
2019-03-31T09:40:26.971Z,1013.76
2019-03-31T09:41:26.911Z,1013.77
2019-03-31T09:42:26.862Z,1013.81
2019-03-31T09:43:26.834Z,1013.81
2019-03-31T09:44:30.078Z,1013.86
2019-03-31T09:45:26.703Z,1013.88
2019-03-31T09:46:26.659Z,1013.85
2019-03-31T09:47:26.606Z,1013.82
2019-03-31T09:48:26.578Z,1013.87
2019-03-31T09:49:26.512Z,1013.90
2019-03-31T09:50:26.449Z,1013.86
2019-03-31T09:51:26.404Z,1013.84
2019-03-31T09:52:26.349Z,1013.80
2019-03-31T09:53:26.333Z,1013.83
2019-03-31T09:54:26.240Z,1013.85
2019-03-31T09:55:26.199Z,1013.92
2019-03-31T09:56:26.140Z,1013.87
2019-03-31T09:57:26.089Z,1013.81
2019-03-31T09:58:26.081Z,1013.90
2019-03-31T09:59:25.998Z,1013.81
2019-03-31T10:00:25.939Z,1013.82
2019-03-31T10:01:33.644Z,1013.87
2019-03-31T10:02:25.995Z,1013.79
2019-03-31T10:03:25.812Z,1013.84
2019-03-31T10:04:25.787Z,1013.75
2019-03-31T10:05:25.674Z,1013.81
2019-03-31T10:06:30.600Z,1013.82
2019-03-31T10:07:25.570Z,1013.76
2019-03-31T10:08:25.520Z,1013.75
2019-03-31T10:09:25.492Z,1013.84
2019-03-31T10:10:25.407Z,1013.71
2019-03-31T10:11:25.364Z,1013.79
2019-03-31T10:12:25.313Z,1013.84
2019-03-31T10:13:25.261Z,1013.88
2019-03-31T10:14:25.234Z,1013.79
2019-03-31T10:15:25.159Z,1013.82
2019-03-31T10:16:25.111Z,1013.90
2019-03-31T10:17:25.037Z,1013.88
2019-03-31T10:18:25.000Z,1013.83
2019-03-31T10:19:24.974Z,1013.87
2019-03-31T10:20:24.899Z,1013.90
2019-03-31T10:21:24.848Z,1013.87
2019-03-31T10:22:24.795Z,1013.90
2019-03-31T10:23:24.748Z,1013.87
2019-03-31T10:24:24.718Z,1013.86
2019-03-31T10:25:24.641Z,1013.94
2019-03-31T10:26:31.804Z,1013.91
2019-03-31T10:27:24.542Z,1013.89
2019-03-31T10:28:24.488Z,1013.99
2019-03-31T10:29:24.456Z,1013.88
2019-03-31T10:30:24.376Z,1013.93
2019-03-31T10:31:24.330Z,1013.97
2019-03-31T10:32:24.278Z,1014.01
2019-03-31T10:33:24.222Z,1013.94
2019-03-31T10:34:24.205Z,1013.93
2019-03-31T10:35:24.128Z,1013.90
2019-03-31T10:36:24.072Z,1013.89
2019-03-31T10:37:24.015Z,1013.86
2019-03-31T10:38:23.965Z,1013.93
2019-03-31T10:39:23.938Z,1013.90
2019-03-31T10:40:23.910Z,1013.92
2019-03-31T10:41:23.813Z,1013.91
2019-03-31T10:42:23.821Z,1013.94
2019-03-31T10:43:23.712Z,1013.96
2019-03-31T10:44:23.681Z,1014.00
2019-03-31T10:45:23.606Z,1013.98
2019-03-31T10:46:23.549Z,1013.95
2019-03-31T10:47:23.491Z,1013.90
2019-03-31T10:48:23.448Z,1013.92
2019-03-31T10:49:23.418Z,1013.92
2019-03-31T10:50:23.349Z,1013.95
2019-03-31T10:51:23.301Z,1013.93
2019-03-31T10:52:23.243Z,1013.95
2019-03-31T10:53:23.191Z,1013.95
2019-03-31T10:54:23.159Z,1013.95
2019-03-31T10:55:23.092Z,1013.92
2019-03-31T10:56:35.348Z,1013.95
2019-03-31T10:57:22.976Z,1013.91
2019-03-31T10:58:22.932Z,1013.92
2019-03-31T10:59:22.900Z,1013.88
2019-03-31T11:00:22.825Z,1013.92
2019-03-31T11:01:22.773Z,1013.87
2019-03-31T11:02:22.716Z,1013.88
2019-03-31T11:03:22.672Z,1013.89
2019-03-31T11:04:22.646Z,1013.85
2019-03-31T11:05:22.569Z,1013.94
2019-03-31T11:06:22.518Z,1013.96
2019-03-31T11:07:22.470Z,1013.96
2019-03-31T11:08:22.418Z,1013.98
2019-03-31T11:09:22.389Z,1013.95
2019-03-31T11:10:22.312Z,1014.01
2019-03-31T11:11:22.257Z,1013.98
2019-03-31T11:12:22.215Z,1013.99
2019-03-31T11:13:22.159Z,1014.02
2019-03-31T11:14:22.123Z,1014.02
2019-03-31T11:15:22.057Z,1014.06
2019-03-31T11:16:22.012Z,1013.99
2019-03-31T11:17:21.949Z,1014.01
2019-03-31T11:18:21.902Z,1014.01
2019-03-31T11:19:21.883Z,1014.01
2019-03-31T11:20:21.806Z,1013.97
2019-03-31T11:21:21.745Z,1013.99
2019-03-31T11:22:21.960Z,1014.03
2019-03-31T11:23:21.644Z,1013.98
2019-03-31T11:24:21.591Z,1014.03
2019-03-31T11:25:26.118Z,1014.06
2019-03-31T11:26:21.491Z,1014.04
2019-03-31T11:27:21.437Z,1014.09
2019-03-31T11:28:21.386Z,1014.12
2019-03-31T11:29:21.336Z,1014.14
2019-03-31T11:30:21.302Z,1014.10
2019-03-31T11:31:22.196Z,1014.09
2019-03-31T11:32:21.175Z,1014.13
2019-03-31T11:33:21.186Z,1014.14
2019-03-31T11:34:21.074Z,1014.21
2019-03-31T11:35:21.048Z,1014.22
2019-03-31T11:36:20.969Z,1014.18
2019-03-31T11:37:20.925Z,1014.19
2019-03-31T11:38:20.866Z,1014.22
2019-03-31T11:39:20.813Z,1014.22
2019-03-31T11:40:20.785Z,1014.22
2019-03-31T11:41:20.708Z,1014.20
2019-03-31T11:42:20.659Z,1014.17
2019-03-31T11:43:20.610Z,1014.15
2019-03-31T11:44:20.554Z,1014.18
2019-03-31T11:45:20.523Z,1014.19
2019-03-31T11:46:20.456Z,1014.18
2019-03-31T11:47:20.397Z,1014.14
2019-03-31T11:48:20.346Z,1014.17
2019-03-31T11:49:20.377Z,1014.21
2019-03-31T11:51:51.866Z,1014.19
2019-03-31T11:52:51.802Z,1014.19
2019-03-31T11:53:51.720Z,1014.14
2019-03-31T11:54:51.701Z,1014.16
2019-03-31T11:55:51.699Z,1014.16
2019-03-31T11:56:51.579Z,1014.17
2019-03-31T11:57:51.522Z,1014.19
2019-03-31T11:58:51.482Z,1014.13
2019-03-31T11:59:51.411Z,1014.14
2019-03-31T12:00:51.463Z,1014.12
2019-03-31T12:01:51.315Z,1014.11
2019-03-31T12:02:51.268Z,1014.15
2019-03-31T12:03:51.206Z,1014.14
2019-03-31T12:04:51.163Z,1014.15
2019-03-31T12:05:51.143Z,1014.11
2019-03-31T12:06:51.068Z,1014.09